sensor_id;sensor_type;location;lat;lon;timestamp;P1;durP1;ratioP1;P2;durP2;ratioP2
1062;SDS011;520;50.932;6.962;2022-09-25T00:01:00;18.63;;;15.20;;
1062;SDS011;520;50.932;6.962;2022-09-25T00:03:27;18.73;;;16.30;;
1062;SDS011;520;50.932;6.962;2022-09-25T00:06:03;18.37;;;14.83;;
1062;SDS011;520;50.932;6.962;2022-09-25T00:08:31;18.20;;;15.53;;
1062;SDS011;520;50.932;6.962;2022-09-25T00:10:59;17.43;;;15.40;;
1062;SDS011;520;50.932;6.962;2022-09-25T00:13:29;17.83;;;15.93;;
1062;SDS011;520;50.932;6.962;2022-09-25T00:15:56;21.10;;;16.93;;
1062;SDS011;520;50.932;6.962;2022-09-25T00:18:24;18.27;;;15.83;;
1062;SDS011;520;50.932;6.962;2022-09-25T00:21:11;19.77;;;16.23;;
1062;SDS011;520;50.932;6.962;2022-09-25T00:23:40;18.70;;;15.80;;
1062;SDS011;520;50.932;6.962;2022-09-25T00:26:10;20.27;;;16.40;;
1062;SDS011;520;50.932;6.962;2022-09-25T00:28:38;20.83;;;16.93;;
1062;SDS011;520;50.932;6.962;2022-09-25T00:31:06;19.00;;;16.83;;
1062;SDS011;520;50.932;6.962;2022-09-25T00:33:34;20.07;;;16.80;;
1062;SDS011;520;50.932;6.962;2022-09-25T00:36:02;19.83;;;17.10;;
1062;SDS011;520;50.932;6.962;2022-09-25T00:38:30;19.37;;;17.27;;
1062;SDS011;520;50.932;6.962;2022-09-25T00:40:57;20.43;;;16.20;;
1062;SDS011;520;50.932;6.962;2022-09-25T00:43:38;17.77;;;15.87;;
1062;SDS011;520;50.932;6.962;2022-09-25T00:51:46;20.87;;;17.13;;
1062;SDS011;520;50.932;6.962;2022-09-25T00:54:21;21.13;;;17.90;;
1062;SDS011;520;50.932;6.962;2022-09-25T00:57:03;23.60;;;18.90;;
1062;SDS011;520;50.932;6.962;2022-09-25T00:59:33;19.90;;;15.70;;
1062;SDS011;520;50.932;6.962;2022-09-25T01:02:03;23.17;;;17.43;;
1062;SDS011;520;50.932;6.962;2022-09-25T01:04:33;22.67;;;18.67;;
1062;SDS011;520;50.932;6.962;2022-09-25T01:07:03;21.77;;;18.27;;
1062;SDS011;520;50.932;6.962;2022-09-25T01:09:29;22.47;;;17.27;;
1062;SDS011;520;50.932;6.962;2022-09-25T01:11:56;20.03;;;17.40;;
1062;SDS011;520;50.932;6.962;2022-09-25T01:14:25;21.63;;;17.53;;
1062;SDS011;520;50.932;6.962;2022-09-25T01:20:09;25.20;;;19.50;;
1062;SDS011;520;50.932;6.962;2022-09-25T01:30:58;22.50;;;17.23;;
1062;SDS011;520;50.932;6.962;2022-09-25T01:33:52;20.73;;;16.37;;
1062;SDS011;520;50.932;6.962;2022-09-25T01:36:28;19.90;;;16.33;;
1062;SDS011;520;50.932;6.962;2022-09-25T01:39:44;20.23;;;17.13;;
1062;SDS011;520;50.932;6.962;2022-09-25T01:44:28;19.77;;;17.27;;
1062;SDS011;520;50.932;6.962;2022-09-25T01:47:01;20.60;;;17.07;;
1062;SDS011;520;50.932;6.962;2022-09-25T01:49:35;19.80;;;16.40;;
1062;SDS011;520;50.932;6.962;2022-09-25T01:52:14;21.07;;;16.40;;
1062;SDS011;520;50.932;6.962;2022-09-25T01:54:49;21.07;;;16.90;;
1062;SDS011;520;50.932;6.962;2022-09-25T01:57:22;16.80;;;15.10;;
1062;SDS011;520;50.932;6.962;2022-09-25T01:59:57;19.13;;;16.97;;
1062;SDS011;520;50.932;6.962;2022-09-25T02:02:30;19.97;;;16.33;;
1062;SDS011;520;50.932;6.962;2022-09-25T02:05:03;19.03;;;16.40;;
1062;SDS011;520;50.932;6.962;2022-09-25T02:07:38;21.33;;;17.30;;
1062;SDS011;520;50.932;6.962;2022-09-25T02:10:15;21.30;;;16.60;;
1062;SDS011;520;50.932;6.962;2022-09-25T02:12:48;19.90;;;15.97;;
1062;SDS011;520;50.932;6.962;2022-09-25T02:15:22;18.90;;;16.53;;
1062;SDS011;520;50.932;6.962;2022-09-25T02:18:01;17.13;;;15.27;;
1062;SDS011;520;50.932;6.962;2022-09-25T02:20:50;17.83;;;15.00;;
1062;SDS011;520;50.932;6.962;2022-09-25T02:23:26;17.40;;;15.53;;
1062;SDS011;520;50.932;6.962;2022-09-25T02:26:25;18.23;;;15.23;;
1062;SDS011;520;50.932;6.962;2022-09-25T02:28:55;17.67;;;15.77;;
1062;SDS011;520;50.932;6.962;2022-09-25T02:31:37;19.83;;;16.03;;
1062;SDS011;520;50.932;6.962;2022-09-25T02:34:07;19.73;;;15.87;;
1062;SDS011;520;50.932;6.962;2022-09-25T02:36:39;18.67;;;14.73;;
1062;SDS011;520;50.932;6.962;2022-09-25T02:39:08;18.33;;;15.10;;
1062;SDS011;520;50.932;6.962;2022-09-25T02:53:22;18.63;;;13.90;;
1062;SDS011;520;50.932;6.962;2022-09-25T02:56:02;15.50;;;12.63;;
1062;SDS011;520;50.932;6.962;2022-09-25T02:58:41;14.03;;;12.53;;
1062;SDS011;520;50.932;6.962;2022-09-25T03:01:12;13.67;;;11.77;;
1062;SDS011;520;50.932;6.962;2022-09-25T03:03:42;15.43;;;12.50;;
1062;SDS011;520;50.932;6.962;2022-09-25T03:06:10;16.67;;;12.00;;
1062;SDS011;520;50.932;6.962;2022-09-25T03:08:38;12.37;;;11.07;;
1062;SDS011;520;50.932;6.962;2022-09-25T03:11:10;14.33;;;10.67;;
1062;SDS011;520;50.932;6.962;2022-09-25T03:13:43;16.80;;;11.67;;
1062;SDS011;520;50.932;6.962;2022-09-25T03:16:13;14.60;;;11.10;;
1062;SDS011;520;50.932;6.962;2022-09-25T03:19:00;13.30;;;10.43;;
1062;SDS011;520;50.932;6.962;2022-09-25T03:21:28;12.60;;;10.33;;
1062;SDS011;520;50.932;6.962;2022-09-25T03:23:55;12.70;;;9.90;;
1062;SDS011;520;50.932;6.962;2022-09-25T03:26:23;10.60;;;9.20;;
1062;SDS011;520;50.932;6.962;2022-09-25T03:28:50;18.60;;;9.60;;
1062;SDS011;520;50.932;6.962;2022-09-25T03:31:17;11.50;;;9.60;;
1062;SDS011;520;50.932;6.962;2022-09-25T03:33:44;17.50;;;9.70;;
1062;SDS011;520;50.932;6.962;2022-09-25T03:36:16;12.30;;;9.40;;
1062;SDS011;520;50.932;6.962;2022-09-25T03:38:48;11.93;;;8.87;;
1062;SDS011;520;50.932;6.962;2022-09-25T03:41:19;14.40;;;8.60;;
1062;SDS011;520;50.932;6.962;2022-09-25T03:43:48;10.83;;;8.20;;
1062;SDS011;520;50.932;6.962;2022-09-25T03:46:20;9.57;;;7.47;;
1062;SDS011;520;50.932;6.962;2022-09-25T03:48:52;9.10;;;8.20;;
1062;SDS011;520;50.932;6.962;2022-09-25T03:51:19;9.20;;;6.70;;
1062;SDS011;520;50.932;6.962;2022-09-25T03:53:47;8.03;;;6.70;;
1062;SDS011;520;50.932;6.962;2022-09-25T03:56:16;9.20;;;6.10;;
1062;SDS011;520;50.932;6.962;2022-09-25T03:58:45;11.07;;;7.80;;
1062;SDS011;520;50.932;6.962;2022-09-25T04:01:13;13.50;;;6.83;;
1062;SDS011;520;50.932;6.962;2022-09-25T04:03:40;9.40;;;6.80;;
1062;SDS011;520;50.932;6.962;2022-09-25T04:06:13;12.93;;;6.73;;
1062;SDS011;520;50.932;6.962;2022-09-25T04:08:44;7.33;;;5.57;;
1062;SDS011;520;50.932;6.962;2022-09-25T04:11:13;13.60;;;6.70;;
1062;SDS011;520;50.932;6.962;2022-09-25T04:13:41;11.47;;;6.17;;
1062;SDS011;520;50.932;6.962;2022-09-25T04:16:09;5.90;;;4.67;;
1062;SDS011;520;50.932;6.962;2022-09-25T04:18:37;5.03;;;3.80;;
1062;SDS011;520;50.932;6.962;2022-09-25T04:21:07;6.33;;;4.47;;
1062;SDS011;520;50.932;6.962;2022-09-25T04:23:35;3.60;;;3.30;;
1062;SDS011;520;50.932;6.962;2022-09-25T04:26:02;7.07;;;4.17;;
1062;SDS011;520;50.932;6.962;2022-09-25T04:28:29;4.47;;;3.40;;
1062;SDS011;520;50.932;6.962;2022-09-25T04:30:57;3.00;;;2.80;;
1062;SDS011;520;50.932;6.962;2022-09-25T04:33:24;4.97;;;3.17;;
1062;SDS011;520;50.932;6.962;2022-09-25T04:36:10;4.27;;;2.60;;
1062;SDS011;520;50.932;6.962;2022-09-25T04:38:37;5.50;;;3.30;;
1062;SDS011;520;50.932;6.962;2022-09-25T04:41:03;3.83;;;2.60;;
1062;SDS011;520;50.932;6.962;2022-09-25T04:43:31;4.80;;;2.90;;
1062;SDS011;520;50.932;6.962;2022-09-25T04:46:04;3.50;;;2.20;;
1062;SDS011;520;50.932;6.962;2022-09-25T04:48:32;5.07;;;2.80;;
1062;SDS011;520;50.932;6.962;2022-09-25T04:50:59;7.13;;;2.50;;
1062;SDS011;520;50.932;6.962;2022-09-25T04:53:26;5.87;;;2.30;;
1062;SDS011;520;50.932;6.962;2022-09-25T04:56:01;5.47;;;2.77;;
1062;SDS011;520;50.932;6.962;2022-09-25T04:58:30;3.20;;;2.40;;
1062;SDS011;520;50.932;6.962;2022-09-25T05:01:00;7.47;;;2.50;;
1062;SDS011;520;50.932;6.962;2022-09-25T05:03:28;4.33;;;2.60;;
1062;SDS011;520;50.932;6.962;2022-09-25T05:05:55;8.67;;;3.13;;
1062;SDS011;520;50.932;6.962;2022-09-25T05:08:22;5.07;;;2.47;;
1062;SDS011;520;50.932;6.962;2022-09-25T05:10:48;6.90;;;2.40;;
1062;SDS011;520;50.932;6.962;2022-09-25T05:13:15;4.73;;;3.80;;
1062;SDS011;520;50.932;6.962;2022-09-25T05:15:41;5.97;;;2.10;;
1062;SDS011;520;50.932;6.962;2022-09-25T05:18:16;5.00;;;2.97;;
1062;SDS011;520;50.932;6.962;2022-09-25T05:20:47;5.07;;;2.70;;
1062;SDS011;520;50.932;6.962;2022-09-25T05:23:15;4.23;;;2.47;;
1062;SDS011;520;50.932;6.962;2022-09-25T05:25:41;6.87;;;3.50;;
1062;SDS011;520;50.932;6.962;2022-09-25T05:28:08;3.63;;;2.30;;
1062;SDS011;520;50.932;6.962;2022-09-25T05:30:36;3.83;;;2.27;;
1062;SDS011;520;50.932;6.962;2022-09-25T05:33:03;4.63;;;2.00;;
1062;SDS011;520;50.932;6.962;2022-09-25T05:35:31;4.37;;;2.23;;
1062;SDS011;520;50.932;6.962;2022-09-25T05:37:58;5.30;;;2.67;;
1062;SDS011;520;50.932;6.962;2022-09-25T05:40:25;6.67;;;2.83;;
1062;SDS011;520;50.932;6.962;2022-09-25T05:42:52;7.17;;;2.63;;
1062;SDS011;520;50.932;6.962;2022-09-25T05:45:20;4.33;;;2.23;;
1062;SDS011;520;50.932;6.962;2022-09-25T05:47:48;4.83;;;2.10;;
1062;SDS011;520;50.932;6.962;2022-09-25T05:50:24;3.50;;;2.30;;
1062;SDS011;520;50.932;6.962;2022-09-25T05:52:55;6.30;;;1.83;;
1062;SDS011;520;50.932;6.962;2022-09-25T05:55:22;3.10;;;1.53;;
1062;SDS011;520;50.932;6.962;2022-09-25T05:57:50;3.10;;;1.80;;
1062;SDS011;520;50.932;6.962;2022-09-25T06:00:17;3.47;;;1.70;;
1062;SDS011;520;50.932;6.962;2022-09-25T06:02:43;4.00;;;1.70;;
1062;SDS011;520;50.932;6.962;2022-09-25T06:05:10;4.17;;;1.70;;
1062;SDS011;520;50.932;6.962;2022-09-25T06:07:37;4.33;;;1.70;;
1062;SDS011;520;50.932;6.962;2022-09-25T06:10:04;3.90;;;1.57;;
1062;SDS011;520;50.932;6.962;2022-09-25T06:12:31;9.70;;;2.20;;
1062;SDS011;520;50.932;6.962;2022-09-25T06:14:57;2.47;;;1.50;;
1062;SDS011;520;50.932;6.962;2022-09-25T06:17:24;4.90;;;1.57;;
1062;SDS011;520;50.932;6.962;2022-09-25T06:19:50;3.80;;;1.70;;
1062;SDS011;520;50.932;6.962;2022-09-25T06:22:17;5.10;;;1.57;;
1062;SDS011;520;50.932;6.962;2022-09-25T06:24:44;5.50;;;2.00;;
1062;SDS011;520;50.932;6.962;2022-09-25T06:27:10;4.90;;;1.77;;
1062;SDS011;520;50.932;6.962;2022-09-25T06:29:37;2.57;;;1.57;;
1062;SDS011;520;50.932;6.962;2022-09-25T06:32:04;5.13;;;3.90;;
1062;SDS011;520;50.932;6.962;2022-09-25T06:34:30;2.30;;;1.30;;
1062;SDS011;520;50.932;6.962;2022-09-25T06:36:58;5.13;;;1.90;;
1062;SDS011;520;50.932;6.962;2022-09-25T06:39:26;5.20;;;2.00;;
1062;SDS011;520;50.932;6.962;2022-09-25T06:41:52;3.63;;;1.70;;
1062;SDS011;520;50.932;6.962;2022-09-25T06:44:19;7.43;;;2.80;;
1062;SDS011;520;50.932;6.962;2022-09-25T06:46:48;3.63;;;1.93;;
1062;SDS011;520;50.932;6.962;2022-09-25T06:49:19;4.23;;;1.77;;
1062;SDS011;520;50.932;6.962;2022-09-25T06:51:46;4.03;;;2.10;;
1062;SDS011;520;50.932;6.962;2022-09-25T06:54:15;5.53;;;2.10;;
1062;SDS011;520;50.932;6.962;2022-09-25T06:56:43;2.77;;;1.93;;
1062;SDS011;520;50.932;6.962;2022-09-25T06:59:13;5.63;;;2.40;;
1062;SDS011;520;50.932;6.962;2022-09-25T07:01:39;5.27;;;2.10;;
1062;SDS011;520;50.932;6.962;2022-09-25T07:04:06;5.00;;;1.87;;
1062;SDS011;520;50.932;6.962;2022-09-25T07:06:33;5.60;;;2.70;;
1062;SDS011;520;50.932;6.962;2022-09-25T07:09:02;8.30;;;3.50;;
1062;SDS011;520;50.932;6.962;2022-09-25T07:11:29;6.23;;;2.83;;
1062;SDS011;520;50.932;6.962;2022-09-25T07:13:59;2.33;;;2.10;;
1062;SDS011;520;50.932;6.962;2022-09-25T07:16:26;3.80;;;2.70;;
1062;SDS011;520;50.932;6.962;2022-09-25T07:18:55;5.07;;;2.93;;
1062;SDS011;520;50.932;6.962;2022-09-25T07:21:25;3.93;;;2.03;;
1062;SDS011;520;50.932;6.962;2022-09-25T07:23:55;6.87;;;2.57;;
1062;SDS011;520;50.932;6.962;2022-09-25T07:26:24;4.83;;;2.13;;
1062;SDS011;520;50.932;6.962;2022-09-25T07:28:54;5.17;;;2.33;;
1062;SDS011;520;50.932;6.962;2022-09-25T07:31:29;4.00;;;1.80;;
1062;SDS011;520;50.932;6.962;2022-09-25T07:33:58;5.33;;;2.17;;
1062;SDS011;520;50.932;6.962;2022-09-25T07:36:27;5.63;;;2.53;;
1062;SDS011;520;50.932;6.962;2022-09-25T07:38:54;5.30;;;2.00;;
1062;SDS011;520;50.932;6.962;2022-09-25T07:41:21;6.07;;;2.43;;
1062;SDS011;520;50.932;6.962;2022-09-25T07:43:52;6.20;;;2.50;;
1062;SDS011;520;50.932;6.962;2022-09-25T07:46:41;8.50;;;2.70;;
1062;SDS011;520;50.932;6.962;2022-09-25T07:49:09;3.70;;;1.97;;
1062;SDS011;520;50.932;6.962;2022-09-25T07:51:36;4.40;;;2.20;;
1062;SDS011;520;50.932;6.962;2022-09-25T07:54:02;4.90;;;2.33;;
1062;SDS011;520;50.932;6.962;2022-09-25T07:56:29;6.40;;;2.63;;
1062;SDS011;520;50.932;6.962;2022-09-25T07:58:56;6.73;;;2.23;;
1062;SDS011;520;50.932;6.962;2022-09-25T08:01:22;5.17;;;2.50;;
1062;SDS011;520;50.932;6.962;2022-09-25T08:03:49;4.20;;;2.27;;
1062;SDS011;520;50.932;6.962;2022-09-25T08:06:16;6.60;;;2.40;;
1062;SDS011;520;50.932;6.962;2022-09-25T08:08:43;3.40;;;2.20;;
1062;SDS011;520;50.932;6.962;2022-09-25T08:11:11;4.50;;;2.17;;
1062;SDS011;520;50.932;6.962;2022-09-25T08:13:39;3.33;;;2.07;;
1062;SDS011;520;50.932;6.962;2022-09-25T08:16:13;4.73;;;2.60;;
1062;SDS011;520;50.932;6.962;2022-09-25T08:18:42;3.23;;;2.13;;
1062;SDS011;520;50.932;6.962;2022-09-25T08:21:12;6.33;;;2.37;;
1062;SDS011;520;50.932;6.962;2022-09-25T08:23:41;3.83;;;2.20;;
1062;SDS011;520;50.932;6.962;2022-09-25T08:26:13;1.83;;;1.30;;
1062;SDS011;520;50.932;6.962;2022-09-25T08:28:39;4.63;;;1.63;;
1062;SDS011;520;50.932;6.962;2022-09-25T08:31:07;6.23;;;1.93;;
1062;SDS011;520;50.932;6.962;2022-09-25T08:33:33;2.90;;;1.70;;
1062;SDS011;520;50.932;6.962;2022-09-25T08:36:01;4.20;;;1.93;;
1062;SDS011;520;50.932;6.962;2022-09-25T08:38:29;8.90;;;4.80;;
1062;SDS011;520;50.932;6.962;2022-09-25T08:41:02;3.87;;;2.00;;
1062;SDS011;520;50.932;6.962;2022-09-25T08:43:33;5.77;;;2.17;;
1062;SDS011;520;50.932;6.962;2022-09-25T08:46:04;4.27;;;2.10;;
1062;SDS011;520;50.932;6.962;2022-09-25T08:49:03;4.10;;;1.90;;
1062;SDS011;520;50.932;6.962;2022-09-25T08:51:39;6.50;;;1.93;;
1062;SDS011;520;50.932;6.962;2022-09-25T08:54:12;4.83;;;1.63;;
1062;SDS011;520;50.932;6.962;2022-09-25T08:56:44;4.20;;;1.60;;
1062;SDS011;520;50.932;6.962;2022-09-25T08:59:27;5.60;;;1.50;;
1062;SDS011;520;50.932;6.962;2022-09-25T09:01:57;1.83;;;1.20;;
1062;SDS011;520;50.932;6.962;2022-09-25T09:04:28;8.43;;;1.83;;
1062;SDS011;520;50.932;6.962;2022-09-25T09:07:04;9.67;;;2.10;;
1062;SDS011;520;50.932;6.962;2022-09-25T09:09:55;3.50;;;2.07;;
1062;SDS011;520;50.932;6.962;2022-09-25T09:15:56;4.93;;;1.47;;
1062;SDS011;520;50.932;6.962;2022-09-25T09:18:27;4.77;;;2.60;;
1062;SDS011;520;50.932;6.962;2022-09-25T09:20:56;2.67;;;1.27;;
1062;SDS011;520;50.932;6.962;2022-09-25T09:23:35;6.53;;;1.57;;
1062;SDS011;520;50.932;6.962;2022-09-25T09:26:16;2.67;;;1.20;;
1062;SDS011;520;50.932;6.962;2022-09-25T09:31:47;3.27;;;1.73;;
1062;SDS011;520;50.932;6.962;2022-09-25T09:51:58;4.77;;;1.50;;
1062;SDS011;520;50.932;6.962;2022-09-25T09:54:53;5.57;;;2.13;;
1062;SDS011;520;50.932;6.962;2022-09-25T09:57:25;3.47;;;2.43;;
1062;SDS011;520;50.932;6.962;2022-09-25T10:00:05;2.67;;;1.33;;
1062;SDS011;520;50.932;6.962;2022-09-25T10:02:39;2.60;;;1.50;;
1062;SDS011;520;50.932;6.962;2022-09-25T10:05:25;3.63;;;1.10;;
1062;SDS011;520;50.932;6.962;2022-09-25T10:07:59;3.63;;;1.10;;
1062;SDS011;520;50.932;6.962;2022-09-25T10:10:30;3.27;;;1.40;;
1062;SDS011;520;50.932;6.962;2022-09-25T10:13:03;4.33;;;1.50;;
1062;SDS011;520;50.932;6.962;2022-09-25T10:15:35;3.10;;;1.53;;
1062;SDS011;520;50.932;6.962;2022-09-25T10:18:07;2.30;;;1.10;;
1062;SDS011;520;50.932;6.962;2022-09-25T10:20:41;3.60;;;1.13;;
1062;SDS011;520;50.932;6.962;2022-09-25T10:26:21;5.57;;;1.20;;
1062;SDS011;520;50.932;6.962;2022-09-25T10:28:48;4.37;;;1.37;;
1062;SDS011;520;50.932;6.962;2022-09-25T10:31:15;1.97;;;1.53;;
1062;SDS011;520;50.932;6.962;2022-09-25T10:34:07;4.23;;;1.10;;
1062;SDS011;520;50.932;6.962;2022-09-25T10:36:45;1.70;;;1.10;;
1062;SDS011;520;50.932;6.962;2022-09-25T10:39:29;5.40;;;1.70;;
1062;SDS011;520;50.932;6.962;2022-09-25T10:45:30;4.70;;;1.40;;
1062;SDS011;520;50.932;6.962;2022-09-25T10:47:58;1.47;;;1.03;;
1062;SDS011;520;50.932;6.962;2022-09-25T10:50:44;3.20;;;1.40;;
1062;SDS011;520;50.932;6.962;2022-09-25T10:53:29;4.50;;;1.43;;
1062;SDS011;520;50.932;6.962;2022-09-25T10:55:59;2.23;;;1.40;;
1062;SDS011;520;50.932;6.962;2022-09-25T10:58:31;1.63;;;0.97;;
1062;SDS011;520;50.932;6.962;2022-09-25T11:01:03;1.27;;;0.97;;
1062;SDS011;520;50.932;6.962;2022-09-25T11:04:06;4.13;;;1.43;;
1062;SDS011;520;50.932;6.962;2022-09-25T11:06:26;4.47;;;1.40;;
1062;SDS011;520;50.932;6.962;2022-09-25T11:09:07;1.67;;;1.10;;
1062;SDS011;520;50.932;6.962;2022-09-25T11:11:48;2.30;;;1.20;;
1062;SDS011;520;50.932;6.962;2022-09-25T11:14:30;1.70;;;1.13;;
1062;SDS011;520;50.932;6.962;2022-09-25T11:17:00;3.40;;;0.97;;
1062;SDS011;520;50.932;6.962;2022-09-25T11:19:32;1.63;;;1.00;;
1062;SDS011;520;50.932;6.962;2022-09-25T11:27:14;3.77;;;1.00;;
1062;SDS011;520;50.932;6.962;2022-09-25T11:29:53;4.10;;;2.80;;
1062;SDS011;520;50.932;6.962;2022-09-25T11:32:44;3.23;;;1.20;;
1062;SDS011;520;50.932;6.962;2022-09-25T11:41:16;3.30;;;1.20;;
1062;SDS011;520;50.932;6.962;2022-09-25T11:44:11;2.63;;;1.20;;
1062;SDS011;520;50.932;6.962;2022-09-25T11:49:50;2.13;;;1.20;;
1062;SDS011;520;50.932;6.962;2022-09-25T11:52:23;4.20;;;1.10;;
1062;SDS011;520;50.932;6.962;2022-09-25T11:58:26;1.90;;;1.53;;
1062;SDS011;520;50.932;6.962;2022-09-25T12:04:13;3.37;;;1.23;;
1062;SDS011;520;50.932;6.962;2022-09-25T12:10:05;3.50;;;1.20;;
1062;SDS011;520;50.932;6.962;2022-09-25T12:15:56;1.43;;;1.07;;
1062;SDS011;520;50.932;6.962;2022-09-25T12:21:21;3.60;;;1.40;;
1062;SDS011;520;50.932;6.962;2022-09-25T12:24:43;4.10;;;2.80;;
1062;SDS011;520;50.932;6.962;2022-09-25T12:27:21;3.00;;;1.40;;
1062;SDS011;520;50.932;6.962;2022-09-25T12:30:16;3.50;;;1.00;;
1062;SDS011;520;50.932;6.962;2022-09-25T12:35:39;1.27;;;1.10;;
1062;SDS011;520;50.932;6.962;2022-09-25T12:41:12;1.73;;;0.90;;
1062;SDS011;520;50.932;6.962;2022-09-25T12:43:58;1.20;;;1.10;;
1062;SDS011;520;50.932;6.962;2022-09-25T12:46:43;2.30;;;1.10;;
1062;SDS011;520;50.932;6.962;2022-09-25T12:49:21;4.20;;;1.23;;
1062;SDS011;520;50.932;6.962;2022-09-25T12:52:00;1.83;;;1.17;;
1062;SDS011;520;50.932;6.962;2022-09-25T12:55:19;3.50;;;1.60;;
1062;SDS011;520;50.932;6.962;2022-09-25T13:00:44;3.47;;;1.50;;
1062;SDS011;520;50.932;6.962;2022-09-25T13:03:35;2.80;;;1.90;;
1062;SDS011;520;50.932;6.962;2022-09-25T13:07:08;2.63;;;2.00;;
1062;SDS011;520;50.932;6.962;2022-09-25T13:09:15;3.10;;;2.43;;
1062;SDS011;520;50.932;6.962;2022-09-25T13:11:59;3.17;;;2.17;;
1062;SDS011;520;50.932;6.962;2022-09-25T13:14:38;2.10;;;1.90;;
1062;SDS011;520;50.932;6.962;2022-09-25T13:17:11;2.17;;;1.70;;
1062;SDS011;520;50.932;6.962;2022-09-25T13:19:40;3.93;;;1.40;;
1062;SDS011;520;50.932;6.962;2022-09-25T13:22:08;2.07;;;1.33;;
1062;SDS011;520;50.932;6.962;2022-09-25T13:24:50;2.07;;;1.53;;
1062;SDS011;520;50.932;6.962;2022-09-25T13:27:23;2.20;;;1.70;;
1062;SDS011;520;50.932;6.962;2022-09-25T13:29:52;4.60;;;2.13;;
1062;SDS011;520;50.932;6.962;2022-09-25T13:32:23;2.37;;;2.17;;
1062;SDS011;520;50.932;6.962;2022-09-25T13:34:54;3.40;;;2.33;;
1062;SDS011;520;50.932;6.962;2022-09-25T13:37:29;5.50;;;2.90;;
1062;SDS011;520;50.932;6.962;2022-09-25T13:39:58;2.33;;;1.73;;
1062;SDS011;520;50.932;6.962;2022-09-25T13:42:46;2.73;;;1.77;;
1062;SDS011;520;50.932;6.962;2022-09-25T13:48:12;2.60;;;2.40;;
1062;SDS011;520;50.932;6.962;2022-09-25T14:06:41;2.60;;;2.07;;
1062;SDS011;520;50.932;6.962;2022-09-25T14:09:14;2.40;;;2.20;;
1062;SDS011;520;50.932;6.962;2022-09-25T14:12:04;2.70;;;1.73;;
1062;SDS011;520;50.932;6.962;2022-09-25T14:14:46;2.90;;;2.00;;
1062;SDS011;520;50.932;6.962;2022-09-25T14:17:20;4.20;;;3.40;;
1062;SDS011;520;50.932;6.962;2022-09-25T14:19:50;2.73;;;1.90;;
1062;SDS011;520;50.932;6.962;2022-09-25T14:22:21;4.83;;;1.50;;
1062;SDS011;520;50.932;6.962;2022-09-25T14:24:52;13.30;;;7.20;;
1062;SDS011;520;50.932;6.962;2022-09-25T14:27:23;4.50;;;2.00;;
1062;SDS011;520;50.932;6.962;2022-09-25T14:30:08;3.87;;;1.93;;
1062;SDS011;520;50.932;6.962;2022-09-25T14:40:57;2.60;;;1.30;;
1062;SDS011;520;50.932;6.962;2022-09-25T14:46:28;1.67;;;1.57;;
1062;SDS011;520;50.932;6.962;2022-09-25T14:49:00;2.60;;;1.50;;
1062;SDS011;520;50.932;6.962;2022-09-25T14:51:49;1.23;;;1.03;;
1062;SDS011;520;50.932;6.962;2022-09-25T14:54:19;4.30;;;1.60;;
1062;SDS011;520;50.932;6.962;2022-09-25T14:56:51;3.40;;;1.50;;
1062;SDS011;520;50.932;6.962;2022-09-25T14:59:37;3.53;;;1.83;;
1062;SDS011;520;50.932;6.962;2022-09-25T15:02:11;1.67;;;1.50;;
1062;SDS011;520;50.932;6.962;2022-09-25T15:04:43;2.03;;;1.60;;
1062;SDS011;520;50.932;6.962;2022-09-25T15:07:44;4.63;;;1.87;;
1062;SDS011;520;50.932;6.962;2022-09-25T15:12:52;1.63;;;1.30;;
1062;SDS011;520;50.932;6.962;2022-09-25T15:15:20;2.80;;;1.47;;
1062;SDS011;520;50.932;6.962;2022-09-25T15:17:51;2.00;;;1.70;;
1062;SDS011;520;50.932;6.962;2022-09-25T15:20:20;1.70;;;1.30;;
1062;SDS011;520;50.932;6.962;2022-09-25T15:22:53;2.40;;;1.60;;
1062;SDS011;520;50.932;6.962;2022-09-25T15:25:31;2.50;;;1.73;;
1062;SDS011;520;50.932;6.962;2022-09-25T15:28:05;2.00;;;1.80;;
1062;SDS011;520;50.932;6.962;2022-09-25T15:30:35;6.47;;;1.47;;
1062;SDS011;520;50.932;6.962;2022-09-25T15:33:02;2.57;;;1.30;;
1062;SDS011;520;50.932;6.962;2022-09-25T15:35:29;1.17;;;1.00;;
1062;SDS011;520;50.932;6.962;2022-09-25T15:38:11;4.30;;;1.47;;
1062;SDS011;520;50.932;6.962;2022-09-25T15:40:39;2.50;;;1.70;;
1062;SDS011;520;50.932;6.962;2022-09-25T15:43:11;4.43;;;1.90;;
1062;SDS011;520;50.932;6.962;2022-09-25T15:45:43;3.33;;;1.20;;
1062;SDS011;520;50.932;6.962;2022-09-25T15:48:27;3.80;;;2.20;;
1062;SDS011;520;50.932;6.962;2022-09-25T15:51:19;2.40;;;1.53;;
1062;SDS011;520;50.932;6.962;2022-09-25T15:53:50;1.80;;;1.00;;
1062;SDS011;520;50.932;6.962;2022-09-25T15:56:26;2.90;;;0.90;;
1062;SDS011;520;50.932;6.962;2022-09-25T16:01:27;2.83;;;1.37;;
1062;SDS011;520;50.932;6.962;2022-09-25T16:04:19;2.87;;;1.13;;
1062;SDS011;520;50.932;6.962;2022-09-25T16:09:52;1.20;;;0.80;;
1062;SDS011;520;50.932;6.962;2022-09-25T16:12:26;1.40;;;1.17;;
1062;SDS011;520;50.932;6.962;2022-09-25T16:14:55;1.30;;;1.00;;
1062;SDS011;520;50.932;6.962;2022-09-25T16:17:39;4.73;;;1.00;;
1062;SDS011;520;50.932;6.962;2022-09-25T16:22:56;2.70;;;1.50;;
1062;SDS011;520;50.932;6.962;2022-09-25T16:25:36;2.93;;;1.90;;
1062;SDS011;520;50.932;6.962;2022-09-25T16:28:13;3.50;;;1.07;;
1062;SDS011;520;50.932;6.962;2022-09-25T16:30:46;2.97;;;1.47;;
1062;SDS011;520;50.932;6.962;2022-09-25T16:33:35;1.90;;;1.07;;
1062;SDS011;520;50.932;6.962;2022-09-25T16:36:08;1.63;;;1.33;;
1062;SDS011;520;50.932;6.962;2022-09-25T16:41:39;3.43;;;1.87;;
1062;SDS011;520;50.932;6.962;2022-09-25T16:49:17;2.80;;;1.40;;
1062;SDS011;520;50.932;6.962;2022-09-25T16:51:47;2.70;;;1.30;;
1062;SDS011;520;50.932;6.962;2022-09-25T16:54:17;1.83;;;1.10;;
1062;SDS011;520;50.932;6.962;2022-09-25T16:56:47;4.40;;;2.47;;
1062;SDS011;520;50.932;6.962;2022-09-25T16:59:22;4.07;;;1.77;;
1062;SDS011;520;50.932;6.962;2022-09-25T17:01:56;1.50;;;1.20;;
1062;SDS011;520;50.932;6.962;2022-09-25T17:04:26;2.50;;;1.50;;
1062;SDS011;520;50.932;6.962;2022-09-25T17:06:54;2.20;;;1.50;;
1062;SDS011;520;50.932;6.962;2022-09-25T17:09:24;1.47;;;1.37;;
1062;SDS011;520;50.932;6.962;2022-09-25T17:11:56;3.90;;;2.00;;
1062;SDS011;520;50.932;6.962;2022-09-25T17:14:26;2.60;;;1.70;;
1062;SDS011;520;50.932;6.962;2022-09-25T17:16:56;5.73;;;1.40;;
1062;SDS011;520;50.932;6.962;2022-09-25T17:19:24;4.93;;;1.10;;
1062;SDS011;520;50.932;6.962;2022-09-25T17:21:52;1.10;;;1.00;;
1062;SDS011;520;50.932;6.962;2022-09-25T17:24:21;4.70;;;1.87;;
1062;SDS011;520;50.932;6.962;2022-09-25T17:26:50;1.33;;;1.10;;
1062;SDS011;520;50.932;6.962;2022-09-25T17:29:18;1.60;;;1.00;;
1062;SDS011;520;50.932;6.962;2022-09-25T17:31:45;2.40;;;0.90;;
1062;SDS011;520;50.932;6.962;2022-09-25T17:36:44;2.50;;;1.40;;
1062;SDS011;520;50.932;6.962;2022-09-25T17:39:11;3.30;;;1.40;;
1062;SDS011;520;50.932;6.962;2022-09-25T17:41:38;3.00;;;1.27;;
1062;SDS011;520;50.932;6.962;2022-09-25T17:44:05;3.70;;;1.50;;
1062;SDS011;520;50.932;6.962;2022-09-25T17:46:34;5.17;;;2.63;;
1062;SDS011;520;50.932;6.962;2022-09-25T17:49:03;2.07;;;1.63;;
1062;SDS011;520;50.932;6.962;2022-09-25T17:51:30;2.30;;;1.30;;
1062;SDS011;520;50.932;6.962;2022-09-25T17:53:57;4.07;;;1.70;;
1062;SDS011;520;50.932;6.962;2022-09-25T17:56:27;3.43;;;1.50;;
1062;SDS011;520;50.932;6.962;2022-09-25T17:58:59;1.80;;;1.30;;
1062;SDS011;520;50.932;6.962;2022-09-25T18:01:28;2.00;;;1.80;;
1062;SDS011;520;50.932;6.962;2022-09-25T18:04:00;4.10;;;2.53;;
1062;SDS011;520;50.932;6.962;2022-09-25T18:06:32;2.70;;;2.10;;
1062;SDS011;520;50.932;6.962;2022-09-25T18:08:59;3.30;;;2.30;;
1062;SDS011;520;50.932;6.962;2022-09-25T18:11:26;3.73;;;2.27;;
1062;SDS011;520;50.932;6.962;2022-09-25T18:13:55;3.63;;;2.20;;
1062;SDS011;520;50.932;6.962;2022-09-25T18:16:27;3.07;;;2.10;;
1062;SDS011;520;50.932;6.962;2022-09-25T18:18:55;2.47;;;1.60;;
1062;SDS011;520;50.932;6.962;2022-09-25T18:21:41;2.97;;;1.90;;
1062;SDS011;520;50.932;6.962;2022-09-25T18:24:26;1.97;;;1.30;;
1062;SDS011;520;50.932;6.962;2022-09-25T18:26:53;4.67;;;1.90;;
1062;SDS011;520;50.932;6.962;2022-09-25T18:29:23;2.70;;;1.20;;
1062;SDS011;520;50.932;6.962;2022-09-25T18:31:50;1.83;;;1.50;;